Terminal Aerodrome Forecast
Issued by NWS Honolulu, HI

Home | Current Version | Previous Version | Text Only | Print | Product List | Glossary On
Versions: 1 2 3 4 5 6 7 8 9 10 11 12 13 14 15 16 17 18 19 20 21 22 23 24
000
FTPA31 PHFO 210307 AAA
TAFHNL
TAF AMD
PHNL 210307Z 2103/2206 02012G20KT P6SM FEW025 BKN045
     FM211200 03014G22KT P6SM FEW025 SCT035
     FM211900 04020G28KT P6SM VCSH SCT025 BKN035=

USA.gov is the U.S. government's official web portal to all federal, state and local government web resources and services.